Terminal Aerodrome Forecast
Issued by NWS

Home | Current Version | Previous Version | Graphics & Text | Print | Product List | Glossary On
Versions: 1 2 3 4 5 6 7 8 9 10 11 12 13 14 15 16 17 18 19 20 21
000
FTUS43 KDLH 052300 RRA
TAFHIB
TAF
KHIB 052344Z 0600/0624 23007KT P6SM SKC
     FM060400 21006KT P6SM SCT090 WS015/24035KT
     FM061000 22008KT 6SM -SN SCT025 BKN050
     FM061400 26008KT P6SM SCT030
     FM061800 28014KT P6SM SCT035=

USA.gov is the U.S. government's official web portal to all federal, state and local government web resources and services.